ELG weather

El Golea Airport
Ghardaïa Province, Algeria

Public forecast

Using degrees Celsius for public forecast. Weather courtesy of forecast.io.

Current aviation weather report (METAR) for El Golea Airport

Retrieved 2020/02/24 20:00 UTC (52 minutes ago):

DAUE 242000Z 08003KT CAVOK 16/M04 Q1026

Aviation forecast (TAF) for El Golea Airport

Forecast is more than 12 hours old.

Retrieved 2016/08/07 00:00 UTC (4 years ago):

TAF DAUE 062300Z 0700/0809 08010KT CAVOK